Blue Ridge, GA

2:50 AM EDT on May 06, 2015 (GMT -0400)
Lake Forest | | Change Station
CLOSE
Current Station
Personal Weather Station
Location: Blue Ridge, GA
Elevation: 1785 ft
Nearby Weather Stations

Elev 1785 ft 34.87 °N, 84.29 °W | Updated 1 day ago

Clear
Clear
55 °F
Feels Like 55 °F
N
1
Wind Variable Wind from ESE
Gusts mph

Today
High -- | Low -- °F
--% Chance of Precip.
Yesterday
High -- | Low -- °F
Precip. -- in
6:41 AM 8:26 PM
Waning Gibbous, 95% visible
Pressure 30.28 in
Visibility 4.0 miles
Clouds
Dew Point 51 °F
Humidity 87%
Rainfall in
Snow Depth Not available.
UV Not available.
Pollen 8.50 out of 12
Air Quality Not available.
Flu Activity Sporadic
METAR KDZJ 060635Z AUTO 00000KT 4SM HZ 11/08 A3028 RMK AO2 T01100078

More Conditions Fewer Conditions

Pressure 30.28 in
Visibility 4.0 miles
Clouds
Dew Point 51 °F
Humidity 87%
Rainfall in
Snow Depth Not available.
UV Not available.
Pollen 8.50 out of 12
Air Quality Not available.
Flu Activity Sporadic
METAR KDZJ 060635Z AUTO 00000KT 4SM HZ 11/08 A3028 RMK AO2 T01100078

More Conditions Fewer Conditions

10-Day Weather Forecast

Almanac

Astronomy

May. 06, 2015 Rise Set
Actual Time
Civil Twilight
Nautical Twilight
Astronomical Twilight
Moon
Length of Visible Light
Length of Day
Tomorrow will be .
, % of the Moon is Illuminated

Today's Extremes

State Highs State Lows

Community

WunderPhotos

Upload Photos

1,818,850 photos uploaded!

WunderBlogs® & News

Nearby

Air Quality

  Air Quality AQ Index Pollutant
Not available.

Snow Depth

Station Depth Elevation

Earthquake Activity

City Distance Mag. Time & Date
Minimum magnitude displayed is 2.5.

Coastal Water Temperatures

Place Temperature

Stations

Nearby Weather Stations

Station Location Temp. Windchill Dew Point Humidity Wind Precip. Elev Updated Type